createdAt,value
2019-05-11T00:02:53.445Z,2.10
2019-05-11T00:07:54.547Z,1.40
2019-05-11T00:12:55.663Z,1.40
2019-05-11T00:17:56.783Z,1.33
2019-05-11T00:22:57.896Z,2.63
2019-05-11T00:27:59.043Z,1.07
2019-05-11T00:33:00.216Z,1.40
2019-05-11T00:38:01.416Z,1.07
2019-05-11T00:43:03.035Z,1.27
2019-05-11T00:48:04.132Z,1.33
2019-05-11T00:53:05.264Z,1.47
2019-05-11T00:58:06.419Z,2.00
2019-05-11T01:03:07.514Z,1.10
2019-05-11T01:08:08.651Z,1.50
2019-05-11T01:13:09.756Z,6.43
2019-05-11T01:18:11.517Z,2.03
2019-05-11T01:23:12.792Z,1.17
2019-05-11T01:28:13.894Z,2.43
2019-05-11T01:33:15.007Z,1.40
2019-05-11T01:38:16.203Z,1.27
2019-05-11T01:43:17.309Z,1.13
2019-05-11T01:48:18.404Z,1.30
2019-05-11T01:53:19.506Z,2.10
2019-05-11T01:58:20.592Z,1.60
2019-05-11T02:03:21.697Z,2.87
2019-05-11T02:08:22.796Z,2.73
2019-05-11T02:13:23.921Z,1.37
2019-05-11T02:18:25.027Z,2.17
2019-05-11T02:23:26.123Z,1.63
2019-05-11T02:28:27.217Z,2.93
2019-05-11T02:33:28.312Z,3.07
2019-05-11T02:38:29.422Z,3.77
2019-05-11T02:43:31.027Z,2.17
2019-05-11T02:48:32.240Z,2.03
2019-05-11T02:53:33.738Z,1.63
2019-05-11T02:58:34.848Z,2.83
2019-05-11T03:03:36.057Z,4.30
2019-05-11T03:08:37.225Z,2.07
2019-05-11T03:13:38.361Z,2.30
2019-05-11T03:18:39.448Z,1.17
2019-05-11T03:23:40.534Z,0.80
2019-05-11T03:28:41.658Z,2.83
2019-05-11T03:33:42.765Z,1.60
2019-05-11T03:38:43.850Z,0.90
2019-05-11T03:43:44.935Z,1.83
2019-05-11T03:48:46.054Z,0.90
2019-05-11T03:53:47.140Z,2.10
2019-05-11T03:58:48.247Z,1.10
2019-05-11T04:03:49.464Z,2.20
2019-05-11T04:08:50.642Z,2.03
2019-05-11T04:13:51.770Z,1.30
2019-05-11T04:18:52.876Z,3.23
2019-05-11T04:23:54.022Z,1.87
2019-05-11T04:28:55.108Z,0.90
2019-05-11T04:33:56.199Z,1.60
2019-05-11T04:38:57.301Z,1.90
2019-05-11T04:43:58.394Z,1.83
2019-05-11T04:48:59.513Z,2.03
2019-05-11T04:54:00.620Z,1.57
2019-05-11T04:59:02.139Z,6.17
2019-05-11T05:04:13.235Z,2.33
2019-05-11T05:09:06.499Z,0.80
2019-05-11T05:14:10.341Z,1.50
2019-05-11T05:19:10.704Z,1.33
2019-05-11T05:24:11.795Z,1.83
2019-05-11T05:29:12.884Z,2.22
2019-05-11T05:34:13.995Z,2.13
2019-05-11T05:39:15.083Z,3.53
2019-05-11T05:44:16.205Z,1.27
2019-05-11T05:49:17.319Z,1.63
2019-05-11T05:54:18.447Z,5.00
2019-05-11T05:59:19.552Z,1.67
2019-05-11T06:04:20.658Z,2.07
2019-05-11T06:09:21.771Z,2.63
2019-05-11T06:14:22.855Z,1.73
2019-05-11T06:19:23.952Z,1.77
2019-05-11T07:12:42.193Z,1.07
2019-05-11T07:17:43.275Z,1.80
2019-05-11T07:22:44.380Z,1.23
2019-05-11T07:27:45.507Z,1.30
2019-05-11T07:32:48.154Z,1.80
2019-05-11T07:37:49.481Z,1.33
2019-05-11T07:42:50.584Z,4.57
2019-05-11T07:47:51.890Z,1.67
2019-05-11T07:52:53.056Z,2.67
2019-05-11T07:57:54.181Z,1.00
2019-05-11T08:02:55.382Z,1.97
2019-05-11T08:07:56.498Z,1.30
2019-05-11T08:12:58.717Z,2.73
2019-05-11T08:18:00.245Z,1.27
2019-05-11T08:23:01.332Z,1.30
2019-05-11T08:28:02.528Z,1.83
2019-05-11T08:33:03.707Z,1.50
2019-05-11T08:38:05.012Z,1.67
2019-05-11T08:43:08.626Z,4.33
2019-05-11T08:48:09.154Z,1.00
2019-05-11T08:53:10.353Z,1.03
2019-05-11T08:58:11.446Z,4.27
2019-05-11T09:03:12.545Z,1.97
2019-05-11T09:08:13.671Z,3.40
2019-05-11T09:13:14.785Z,1.10
2019-05-11T09:18:15.883Z,0.47
2019-05-11T09:23:30.906Z,1.53
2019-05-11T09:28:19.996Z,1.63
2019-05-11T09:33:21.087Z,2.30
2019-05-11T09:38:22.213Z,4.53
2019-05-11T09:43:23.316Z,1.40
2019-05-11T09:48:24.431Z,0.77
2019-05-11T09:53:25.535Z,2.07
2019-05-11T09:58:28.032Z,3.27
2019-05-11T10:03:29.365Z,1.97
2019-05-11T10:08:30.461Z,1.53
2019-05-11T10:13:31.587Z,3.43
2019-05-11T10:18:32.676Z,1.07
2019-05-11T10:23:33.796Z,0.40
2019-05-11T10:28:34.997Z,0.50
2019-05-11T10:33:38.070Z,1.30
2019-05-11T10:38:39.233Z,1.13
2019-05-11T10:43:40.347Z,1.73
2019-05-11T10:48:41.486Z,2.63
2019-05-11T10:53:42.564Z,1.27
2019-05-11T10:58:43.710Z,1.73
2019-05-11T11:03:44.940Z,0.67
2019-05-11T11:08:48.431Z,1.23
2019-05-11T11:13:49.049Z,1.50
2019-05-11T11:18:50.716Z,0.63
2019-05-11T11:23:51.913Z,1.17
2019-05-11T11:28:53.025Z,1.90
2019-05-11T11:33:56.233Z,0.80
2019-05-11T11:38:58.344Z,1.23
2019-05-11T11:43:59.765Z,0.50
2019-05-11T11:49:00.927Z,0.90
2019-05-11T11:54:02.150Z,0.67
2019-05-11T11:59:03.265Z,1.00
2019-05-11T12:04:04.363Z,0.40
2019-05-11T12:09:08.799Z,0.30
2019-05-11T12:14:09.930Z,0.80
2019-05-11T12:19:11.238Z,1.90
2019-05-11T12:24:12.342Z,1.37
2019-05-11T12:29:13.487Z,0.77
2019-05-11T12:34:14.614Z,1.37
2019-05-11T12:39:15.711Z,1.43
2019-05-11T12:44:18.832Z,1.30
2019-05-11T12:49:19.879Z,1.40
2019-05-11T12:54:21.028Z,3.17
2019-05-11T12:59:22.120Z,1.83
2019-05-11T13:04:23.248Z,1.53
2019-05-11T13:09:24.347Z,1.63
2019-05-11T13:14:27.564Z,1.90
2019-05-11T13:19:28.477Z,5.00
2019-05-11T13:24:29.604Z,0.63
2019-05-11T13:29:30.741Z,0.60
2019-05-11T13:34:31.844Z,1.70
2019-05-11T13:39:32.951Z,0.70
2019-05-11T13:44:34.061Z,3.07
2019-05-11T13:49:37.644Z,1.00
2019-05-11T13:54:38.196Z,1.67
2019-05-11T13:59:39.380Z,1.13
2019-05-11T14:04:40.485Z,1.40
2019-05-11T14:09:41.843Z,2.70
2019-05-11T14:14:42.936Z,1.33
2019-05-11T14:19:44.048Z,4.67
2019-05-11T14:24:45.138Z,7.00
2019-05-11T14:29:48.077Z,1.53
2019-05-11T14:34:49.362Z,4.43
2019-05-11T14:39:50.476Z,2.90
2019-05-11T14:44:51.604Z,3.80
2019-05-11T14:49:52.721Z,2.73
2019-05-11T14:54:53.810Z,1.40
2019-05-11T14:59:54.942Z,3.10
2019-05-11T15:04:58.550Z,1.43
2019-05-11T15:09:59.279Z,3.67
2019-05-11T15:15:00.405Z,5.30
2019-05-11T15:20:02.918Z,2.00
2019-05-11T15:25:08.027Z,1.30
2019-05-11T15:30:10.263Z,2.20
2019-05-11T15:35:11.876Z,4.97
2019-05-11T15:40:13.982Z,2.70
2019-05-11T15:45:18.715Z,4.20
2019-05-11T15:50:20.715Z,5.73
2019-05-11T15:55:22.013Z,2.40
2019-05-11T16:00:23.336Z,1.20
2019-05-11T16:05:24.925Z,6.37
2019-05-11T16:10:27.887Z,3.03
2019-05-11T16:15:29.383Z,2.70
2019-05-11T16:20:30.491Z,1.77
2019-05-11T16:25:31.600Z,1.67
2019-05-11T16:30:32.827Z,5.63
2019-05-11T16:35:33.924Z,0.50
2019-05-11T16:40:35.048Z,1.33
2019-05-11T16:45:36.153Z,1.07
2019-05-11T16:50:38.361Z,1.60
2019-05-11T16:55:39.739Z,0.83
2019-05-11T17:00:42.283Z,1.60
2019-05-11T17:05:43.664Z,0.93
2019-05-11T17:10:48.066Z,0.80
2019-05-11T17:15:49.250Z,1.70
2019-05-11T17:20:50.368Z,3.33
2019-05-11T17:25:51.479Z,1.90
2019-05-11T17:30:52.621Z,3.37
2019-05-11T17:35:53.926Z,3.57
2019-05-11T17:40:55.040Z,2.50
2019-05-11T17:45:58.368Z,0.97
2019-05-11T17:50:59.273Z,0.40
2019-05-11T17:56:00.384Z,2.77
2019-05-11T18:01:01.528Z,1.00
2019-05-11T18:06:02.724Z,0.57
2019-05-11T18:11:03.931Z,1.30
2019-05-11T18:16:05.159Z,1.57
2019-05-11T18:21:08.492Z,3.33
2019-05-11T18:26:09.604Z,2.63
2019-05-11T18:31:10.746Z,1.67
2019-05-11T18:36:13.221Z,2.67
2019-05-11T18:41:14.378Z,3.40
2019-05-11T18:46:15.508Z,1.23
2019-05-11T18:51:16.759Z,2.77
2019-05-11T18:56:18.233Z,1.50
2019-05-11T19:01:20.076Z,3.00
2019-05-11T19:06:21.175Z,4.77
2019-05-11T19:11:22.327Z,3.97
2019-05-11T19:16:23.483Z,5.20
2019-05-11T19:21:24.738Z,4.57
2019-05-11T19:26:25.862Z,4.43
2019-05-11T19:31:28.119Z,3.50
2019-05-11T19:36:29.555Z,4.20
2019-05-11T19:41:30.660Z,4.40
2019-05-11T19:46:31.967Z,4.87
2019-05-11T19:51:34.346Z,4.30
2019-05-11T19:56:35.514Z,5.17
2019-05-11T20:01:36.727Z,5.73
2019-05-11T20:06:38.523Z,5.13
2019-05-11T20:11:39.946Z,4.60
2019-05-11T20:16:41.069Z,4.70
2019-05-11T20:21:42.182Z,7.00
2019-05-11T20:26:43.311Z,6.07
2019-05-11T20:31:44.430Z,4.20
2019-05-11T20:36:47.951Z,4.87
2019-05-11T20:41:48.599Z,4.70
2019-05-11T20:46:49.696Z,5.43
2019-05-11T20:51:50.832Z,6.17
2019-05-11T20:56:51.951Z,6.77
2019-05-11T21:01:53.090Z,8.03
2019-05-11T21:06:54.298Z,6.20
2019-05-11T21:11:55.400Z,6.03
2019-05-11T21:16:58.656Z,6.70
2019-05-11T21:21:59.602Z,7.33
2019-05-11T21:27:00.703Z,7.33
2019-05-11T21:32:01.814Z,6.00
2019-05-11T21:37:03.022Z,7.37
2019-05-11T21:42:04.142Z,6.27
2019-05-11T21:47:07.585Z,5.43
2019-05-11T21:52:08.517Z,5.40
2019-05-11T21:57:09.623Z,6.60
2019-05-11T22:02:11.265Z,6.33
2019-05-11T22:07:12.531Z,5.57
2019-05-11T22:12:13.733Z,5.17
2019-05-11T22:17:14.843Z,5.30
2019-05-11T22:22:22.444Z,4.93
2019-05-11T22:27:18.944Z,4.83
2019-05-11T22:32:20.829Z,4.63
2019-05-11T22:37:21.950Z,3.90
2019-05-11T22:42:23.080Z,4.17
2019-05-11T22:47:24.170Z,3.37
2019-05-11T22:52:33.842Z,3.50
2019-05-11T22:57:28.268Z,4.43
2019-05-11T23:02:29.371Z,3.30
2019-05-11T23:07:30.582Z,5.43
2019-05-11T23:12:31.696Z,4.93
2019-05-11T23:17:32.797Z,3.53
2019-05-11T23:22:50.660Z,5.07
2019-05-11T23:27:39.401Z,4.00
2019-05-11T23:32:40.641Z,3.87
2019-05-11T23:37:42.634Z,5.47
2019-05-11T23:42:43.951Z,6.17
2019-05-11T23:47:45.050Z,4.30
2019-05-11T23:52:48.527Z,3.97
2019-05-11T23:57:49.370Z,4.43
